createdAt,value
2019-04-14T00:00:01.823Z,29.27
2019-04-14T00:02:36.140Z,31.80
2019-04-14T00:05:08.381Z,28.87
2019-04-14T00:07:38.460Z,28.53
2019-04-14T00:10:11.478Z,27.13
2019-04-14T00:12:40.859Z,31.13
2019-04-14T00:15:21.140Z,30.27
2019-04-14T00:17:43.274Z,28.30
2019-04-14T00:20:14.234Z,28.93
2019-04-14T00:22:44.612Z,27.83
2019-04-14T00:25:17.336Z,29.37
2019-04-14T00:27:47.540Z,28.98
2019-04-14T00:30:20.819Z,29.73
2019-04-14T00:32:53.457Z,27.37
2019-04-14T00:35:29.894Z,31.87
2019-04-14T00:38:23.766Z,30.97
2019-04-14T00:41:11.672Z,34.80
2019-04-14T00:43:49.028Z,29.07
2019-04-14T00:46:25.666Z,33.60
2019-04-14T00:48:54.632Z,31.60
2019-04-14T00:51:24.518Z,32.40
2019-04-14T00:53:53.907Z,35.30
2019-04-14T00:56:23.684Z,31.30
2019-04-14T00:58:54.005Z,31.00
2019-04-14T01:01:24.324Z,35.30
2019-04-14T01:03:54.772Z,33.43
2019-04-14T01:06:25.529Z,30.43
2019-04-14T01:08:55.407Z,34.87
2019-04-14T01:11:24.897Z,28.93
2019-04-14T01:13:59.699Z,36.40
2019-04-14T01:16:29.710Z,32.90
2019-04-14T01:18:59.015Z,29.47
2019-04-14T01:21:28.516Z,34.00
2019-04-14T01:23:58.809Z,33.03
2019-04-14T01:26:28.900Z,36.90
2019-04-14T01:28:59.242Z,33.30
2019-04-14T01:31:29.338Z,31.03
2019-04-14T01:33:59.793Z,34.20
2019-04-14T01:36:29.841Z,29.83
2019-04-14T01:38:58.807Z,32.53
2019-04-14T01:41:30.993Z,36.43
2019-04-14T01:44:00.336Z,33.70
2019-04-14T01:46:32.585Z,40.53
2019-04-14T01:49:02.880Z,33.93
2019-04-14T01:51:41.724Z,29.40
2019-04-14T01:54:21.403Z,36.25
2019-04-14T01:57:09.246Z,32.43
2019-04-14T01:59:39.127Z,33.30
2019-04-14T02:02:10.248Z,33.20
2019-04-14T02:04:39.870Z,31.87
2019-04-14T02:07:10.187Z,32.50
2019-04-14T02:09:47.365Z,33.53
2019-04-14T02:12:16.992Z,36.90
2019-04-14T02:14:47.768Z,28.92
2019-04-14T02:17:17.747Z,31.23
2019-04-14T02:19:48.134Z,37.27
2019-04-14T02:22:20.191Z,31.03
2019-04-14T02:24:50.300Z,38.90
2019-04-14T02:27:33.993Z,35.43
2019-04-14T02:30:17.364Z,35.03
2019-04-14T02:33:17.357Z,36.58
2019-04-14T02:35:47.147Z,32.47
2019-04-14T02:40:49.234Z,33.27
2019-04-14T02:43:25.649Z,33.00
2019-04-14T02:45:59.688Z,33.90
2019-04-14T02:48:31.335Z,32.50
2019-04-14T02:50:48.134Z,35.20
2019-04-14T02:55:49.226Z,37.55
2019-04-14T02:58:26.689Z,34.30
2019-04-14T03:01:09.514Z,31.30
2019-04-14T03:03:27.838Z,33.27
2019-04-14T03:05:58.015Z,37.73
2019-04-14T03:08:25.561Z,36.83
2019-04-14T03:10:53.973Z,31.73
2019-04-14T03:13:29.326Z,31.40
2019-04-14T03:15:57.138Z,37.03
2019-04-14T03:18:52.539Z,30.00
2019-04-14T03:22:00.887Z,25.20
2019-04-14T03:24:29.253Z,27.22
2019-04-14T03:27:26.607Z,33.10
2019-04-14T03:35:09.828Z,27.90
2019-04-14T03:42:38.337Z,29.77
2019-04-14T03:44:59.034Z,31.00
2019-04-14T03:47:34.835Z,30.10
2019-04-14T03:50:08.413Z,26.75
2019-04-14T03:52:39.995Z,26.10
2019-04-14T03:54:56.790Z,28.62
2019-04-14T03:57:08.322Z,27.30
2019-04-14T03:59:37.725Z,22.60
2019-04-14T04:02:07.488Z,25.73
2019-04-14T04:04:37.929Z,25.97
2019-04-14T04:07:08.133Z,24.37
2019-04-14T04:10:00.502Z,28.80
2019-04-14T04:12:29.523Z,22.73
2019-04-14T04:14:59.578Z,26.67
2019-04-14T04:17:45.169Z,26.33
2019-04-14T04:20:30.929Z,28.90
2019-04-14T04:23:18.403Z,26.85
2019-04-14T04:26:12.714Z,25.67
2019-04-14T04:29:00.514Z,24.50
2019-04-14T04:31:48.277Z,26.70
2019-04-14T04:34:40.358Z,29.82
2019-04-14T04:37:14.925Z,26.80
2019-04-14T04:39:45.738Z,21.70
2019-04-14T04:42:15.470Z,24.80
2019-04-14T04:44:44.625Z,23.20
2019-04-14T04:47:14.313Z,24.17
2019-04-14T04:49:44.711Z,25.87
2019-04-14T04:52:15.813Z,21.00
2019-04-14T04:54:45.069Z,22.83
2019-04-14T04:57:15.457Z,24.47
2019-04-14T04:59:45.294Z,24.87
2019-04-14T05:02:14.168Z,22.73
2019-04-14T05:04:44.439Z,32.17
2019-04-14T05:07:14.408Z,27.17
2019-04-14T05:10:02.990Z,22.93
2019-04-14T05:12:45.657Z,25.77
2019-04-14T05:15:40.255Z,28.73
2019-04-14T05:18:17.714Z,34.37
2019-04-14T05:20:46.942Z,25.90
2019-04-14T05:23:16.936Z,24.93
2019-04-14T05:25:45.898Z,25.23
2019-04-14T05:28:15.554Z,28.63
2019-04-14T05:30:45.828Z,25.40
2019-04-14T05:33:16.272Z,24.97
2019-04-14T05:35:45.219Z,22.90
2019-04-14T05:38:14.730Z,30.30
2019-04-14T05:40:45.080Z,30.05
2019-04-14T05:43:27.361Z,24.70
2019-04-14T05:45:45.785Z,28.40
2019-04-14T05:48:15.991Z,23.50
2019-04-14T05:50:44.927Z,20.17
2019-04-14T05:53:13.961Z,22.77
2019-04-14T05:55:43.835Z,20.80
2019-04-14T05:58:14.225Z,20.23
2019-04-14T06:00:46.436Z,23.97
2019-04-14T06:03:15.335Z,20.23
2019-04-14T06:05:45.322Z,24.37
2019-04-14T06:08:14.290Z,22.00
2019-04-14T06:10:44.343Z,23.23
2019-04-14T06:13:13.508Z,21.53
2019-04-14T06:15:42.347Z,21.47
2019-04-14T06:18:11.421Z,18.27
2019-04-14T06:20:40.530Z,19.70
2019-04-14T06:23:09.877Z,23.23
2019-04-14T06:25:38.996Z,19.65
2019-04-14T06:28:08.646Z,20.27
2019-04-14T06:31:02.377Z,18.80
2019-04-14T06:33:40.767Z,17.63
2019-04-14T06:36:27.986Z,21.63
2019-04-14T06:39:06.982Z,18.05
2019-04-14T06:41:36.331Z,20.70
2019-04-14T06:44:05.569Z,17.77
2019-04-14T06:46:34.635Z,21.37
2019-04-14T06:49:03.997Z,17.80
2019-04-14T06:51:33.119Z,19.57
2019-04-14T06:54:01.966Z,22.20
2019-04-14T06:56:31.242Z,18.40
2019-04-14T06:59:00.411Z,18.90
2019-04-14T07:01:29.759Z,20.23
2019-04-14T07:03:58.734Z,21.50
2019-04-14T07:06:27.681Z,21.07
2019-04-14T07:09:01.002Z,19.47
2019-04-14T07:11:32.590Z,19.02
2019-04-14T07:14:05.118Z,22.37
2019-04-14T07:16:33.962Z,18.90
2019-04-14T07:19:02.971Z,22.87
2019-04-14T07:21:33.048Z,21.20
2019-04-14T07:24:03.302Z,17.97
2019-04-14T07:26:32.561Z,19.23
2019-04-14T07:29:02.035Z,20.63
2019-04-14T07:31:50.035Z,20.53
2019-04-14T07:34:54.872Z,20.30
2019-04-14T07:37:39.794Z,17.93
2019-04-14T07:40:19.768Z,18.80
2019-04-14T07:42:56.368Z,14.23
2019-04-14T07:45:44.341Z,15.80
2019-04-14T07:48:24.766Z,14.07
2019-04-14T07:51:05.762Z,13.73
2019-04-14T07:53:51.629Z,15.00
2019-04-14T07:56:32.737Z,18.40
2019-04-14T07:59:07.312Z,16.57
2019-04-14T08:01:44.331Z,18.80
2019-04-14T08:04:20.231Z,17.00
2019-04-14T08:06:54.191Z,18.15
2019-04-14T08:09:23.528Z,15.10
2019-04-14T08:11:52.595Z,16.80
2019-04-14T08:14:21.474Z,19.63
2019-04-14T08:16:50.247Z,18.05
2019-04-14T08:19:21.549Z,15.47
2019-04-14T08:21:50.295Z,18.60
2019-04-14T08:24:22.407Z,15.07
2019-04-14T08:26:51.624Z,18.00
2019-04-14T08:29:20.898Z,15.33
2019-04-14T08:31:49.985Z,17.70
2019-04-14T08:34:18.895Z,18.23
2019-04-14T08:36:58.060Z,17.60
2019-04-14T08:39:27.129Z,17.20
2019-04-14T08:42:18.481Z,18.90
2019-04-14T08:44:50.567Z,18.17
2019-04-14T08:47:37.407Z,15.43
2019-04-14T08:50:19.441Z,17.10
2019-04-14T08:52:56.563Z,17.43
2019-04-14T08:55:48.300Z,14.80
2019-04-14T08:58:26.658Z,20.87
2019-04-14T09:01:07.018Z,18.80
2019-04-14T09:03:49.550Z,16.07
2019-04-14T09:06:25.671Z,17.13
2019-04-14T09:09:26.073Z,19.60
2019-04-14T09:12:14.586Z,18.07
2019-04-14T09:14:32.257Z,17.27
2019-04-14T09:17:03.056Z,18.60
2019-04-14T09:19:34.172Z,17.93
2019-04-14T09:22:06.086Z,16.63
2019-04-14T09:24:35.163Z,20.70
2019-04-14T09:27:04.103Z,15.80
2019-04-14T09:29:32.949Z,19.67
2019-04-14T09:32:02.926Z,19.57
2019-04-14T09:34:34.199Z,19.43
2019-04-14T09:37:03.432Z,21.07
2019-04-14T09:39:36.392Z,15.80
2019-04-14T09:42:06.648Z,16.17
2019-04-14T09:44:37.151Z,17.47
2019-04-14T09:47:06.968Z,15.10
2019-04-14T09:49:37.711Z,20.23
2019-04-14T09:52:07.154Z,15.37
2019-04-14T09:54:35.934Z,17.70
2019-04-14T09:57:05.683Z,27.13
2019-04-14T09:59:34.700Z,23.35
2019-04-14T10:02:03.890Z,16.70
2019-04-14T10:04:35.142Z,20.10
2019-04-14T10:07:04.022Z,16.00
2019-04-14T10:09:32.955Z,20.73
2019-04-14T10:12:11.331Z,15.67
2019-04-14T10:14:40.143Z,20.10
2019-04-14T10:17:09.246Z,21.97
2019-04-14T10:19:38.121Z,18.00
2019-04-14T10:22:08.169Z,16.30
2019-04-14T10:24:37.557Z,16.23
2019-04-14T10:27:06.834Z,16.57
2019-04-14T10:29:36.980Z,19.00
2019-04-14T10:32:05.896Z,23.97
2019-04-14T10:34:35.012Z,18.20
2019-04-14T10:37:04.283Z,18.67
2019-04-14T10:39:33.671Z,16.67
2019-04-14T10:42:02.925Z,17.03
2019-04-14T10:44:31.989Z,22.37
2019-04-14T10:47:01.573Z,18.50
2019-04-14T10:49:32.237Z,18.73
2019-04-14T10:52:01.854Z,18.10
2019-04-14T10:54:32.132Z,19.10
2019-04-14T10:57:01.414Z,16.73
2019-04-14T10:59:30.445Z,20.20
2019-04-14T11:01:59.893Z,20.07
2019-04-14T11:04:29.910Z,20.10
2019-04-14T11:07:08.214Z,20.10
2019-04-14T11:09:37.359Z,15.83
2019-04-14T11:12:07.366Z,17.50
2019-04-14T11:14:37.149Z,15.37
2019-04-14T11:17:06.598Z,15.47
2019-04-14T11:19:35.613Z,19.90
2019-04-14T11:22:04.352Z,18.57
2019-04-14T11:24:33.393Z,19.80
2019-04-14T11:27:02.717Z,15.43
2019-04-14T11:29:32.562Z,17.60
2019-04-14T11:32:25.683Z,22.40
2019-04-14T11:35:16.849Z,16.52
2019-04-14T11:37:57.961Z,17.70
2019-04-14T11:40:30.842Z,17.60
2019-04-14T11:42:59.593Z,17.00
2019-04-14T11:45:28.808Z,21.70
2019-04-14T11:47:58.011Z,14.65
2019-04-14T11:50:27.347Z,19.90
2019-04-14T11:52:56.713Z,17.55
2019-04-14T11:55:25.703Z,15.73
2019-04-14T11:57:57.589Z,15.50
2019-04-14T12:00:44.502Z,20.40
2019-04-14T12:03:20.917Z,14.40
2019-04-14T12:06:11.068Z,16.20
2019-04-14T12:08:50.902Z,13.70
2019-04-14T12:11:19.699Z,17.50
2019-04-14T12:13:48.735Z,15.50
2019-04-14T12:16:17.907Z,24.63
2019-04-14T12:18:46.916Z,17.23
2019-04-14T12:21:16.020Z,19.05
2019-04-14T12:23:45.027Z,14.90
2019-04-14T12:26:13.815Z,14.80
2019-04-14T12:28:42.933Z,15.50
2019-04-14T12:31:19.501Z,15.00
2019-04-14T12:33:48.687Z,15.57
2019-04-14T12:36:18.063Z,19.27
2019-04-14T12:38:47.078Z,15.20
2019-04-14T12:41:22.023Z,16.13
2019-04-14T12:44:18.314Z,16.03
2019-04-14T12:47:09.026Z,15.40
2019-04-14T12:49:40.521Z,15.53
2019-04-14T12:52:21.319Z,15.20
2019-04-14T12:54:48.941Z,16.47
2019-04-14T12:57:25.057Z,13.33
2019-04-14T12:59:55.195Z,15.70
2019-04-14T13:02:33.338Z,16.80
2019-04-14T13:05:07.931Z,14.53
2019-04-14T13:07:37.575Z,15.68
2019-04-14T13:10:07.690Z,16.60
2019-04-14T13:12:37.142Z,15.30
2019-04-14T13:15:06.914Z,15.97
2019-04-14T13:17:36.711Z,18.80
2019-04-14T13:20:06.152Z,18.10
2019-04-14T13:22:35.597Z,16.20
2019-04-14T13:25:04.807Z,16.00
2019-04-14T13:27:34.245Z,14.50
2019-04-14T13:30:04.117Z,16.03
2019-04-14T13:32:36.269Z,17.37
2019-04-14T13:35:04.027Z,20.17
2019-04-14T13:37:33.051Z,16.40
2019-04-14T13:40:02.781Z,14.13
2019-04-14T13:42:32.014Z,13.83
2019-04-14T13:45:01.072Z,15.70
2019-04-14T13:47:30.666Z,19.73
2019-04-14T13:50:01.222Z,15.60
2019-04-14T13:52:31.079Z,13.13
2019-04-14T13:55:00.884Z,17.13
2019-04-14T13:57:29.790Z,17.20
2019-04-14T13:59:59.226Z,17.90
2019-04-14T14:02:28.447Z,15.73
2019-04-14T14:04:57.719Z,19.70
2019-04-14T14:07:28.091Z,15.87
2019-04-14T14:09:57.384Z,18.00
2019-04-14T14:12:37.470Z,16.90
2019-04-14T14:15:25.181Z,16.02
2019-04-14T14:18:11.926Z,14.90
2019-04-14T14:21:01.061Z,18.57
2019-04-14T14:23:37.430Z,15.38
2019-04-14T14:26:09.260Z,16.63
2019-04-14T14:28:38.816Z,13.50
2019-04-14T14:31:08.034Z,13.33
2019-04-14T14:33:37.071Z,11.63
2019-04-14T14:36:06.378Z,13.80
2019-04-14T14:38:35.475Z,12.17
2019-04-14T14:41:05.562Z,11.40
2019-04-14T14:43:36.689Z,11.40
2019-04-14T14:46:29.207Z,13.43
2019-04-14T14:49:08.649Z,13.17
2019-04-14T14:51:54.767Z,15.27
2019-04-14T14:54:23.797Z,13.50
2019-04-14T14:56:52.630Z,11.83
2019-04-14T14:59:21.942Z,13.40
2019-04-14T15:01:51.370Z,15.23
2019-04-14T15:04:20.143Z,15.70
2019-04-14T15:06:49.293Z,15.50
2019-04-14T15:09:25.330Z,13.70
2019-04-14T15:11:55.285Z,15.50
2019-04-14T15:14:27.466Z,15.00
2019-04-14T15:16:57.456Z,12.97
2019-04-14T15:19:28.953Z,13.23
2019-04-14T15:22:00.737Z,15.40
2019-04-14T15:24:30.785Z,11.73
2019-04-14T15:27:00.467Z,13.77
2019-04-14T15:29:30.173Z,12.70
2019-04-14T15:31:59.315Z,11.87
2019-04-14T15:34:28.305Z,13.87
2019-04-14T15:36:57.080Z,10.60
2019-04-14T15:39:26.125Z,11.70
2019-04-14T15:41:55.489Z,17.73
2019-04-14T15:44:24.651Z,9.83
2019-04-14T15:46:53.731Z,13.20
2019-04-14T15:49:22.531Z,13.45
2019-04-14T15:51:51.543Z,13.70
2019-04-14T15:54:21.045Z,10.40
2019-04-14T15:57:04.967Z,12.73
2019-04-14T15:59:49.478Z,9.93
2019-04-14T16:02:27.838Z,9.10
2019-04-14T16:05:15.778Z,13.80
2019-04-14T16:08:07.324Z,7.90
2019-04-14T16:10:52.211Z,9.48
2019-04-14T16:13:39.025Z,11.67
2019-04-14T16:16:15.413Z,8.77
2019-04-14T16:18:57.398Z,8.90
2019-04-14T16:21:26.394Z,7.60
2019-04-14T16:23:55.727Z,7.80
2019-04-14T16:26:40.783Z,8.18
2019-04-14T16:29:14.893Z,7.57
2019-04-14T16:32:15.189Z,6.40
2019-04-14T16:34:47.475Z,6.70
2019-04-14T16:37:16.536Z,6.43
2019-04-14T16:39:46.596Z,6.30
2019-04-14T16:42:15.982Z,6.10
2019-04-14T16:44:50.427Z,6.70
2019-04-14T16:47:19.964Z,6.77
2019-04-14T16:50:16.991Z,5.67
2019-04-14T16:53:03.137Z,5.17
2019-04-14T16:56:07.202Z,6.20
2019-04-14T16:58:47.206Z,5.45
2019-04-14T17:01:24.511Z,5.67
2019-04-14T17:03:53.652Z,5.63
2019-04-14T17:06:23.582Z,6.13
2019-04-14T17:08:53.080Z,6.85
2019-04-14T17:11:22.029Z,6.57
2019-04-14T17:14:09.158Z,5.97
2019-04-14T17:17:15.660Z,5.00
2019-04-14T17:20:09.570Z,6.28
2019-04-14T17:22:59.806Z,6.87
2019-04-14T17:25:47.226Z,5.77
2019-04-14T17:28:31.193Z,7.03
2019-04-14T17:31:17.373Z,4.60
2019-04-14T17:33:56.572Z,6.50
2019-04-14T17:36:41.580Z,4.60
2019-04-14T17:39:18.802Z,4.83
2019-04-14T17:42:05.607Z,4.77
2019-04-14T17:44:46.257Z,4.28
2019-04-14T17:47:39.171Z,4.27
2019-04-14T17:50:18.178Z,5.03
2019-04-14T17:52:59.470Z,5.20
2019-04-14T17:55:49.388Z,4.43
2019-04-14T17:58:14.312Z,3.93
2019-04-14T18:01:01.682Z,3.90
2019-04-14T18:03:34.231Z,9.20
2019-04-14T18:06:25.319Z,4.73
2019-04-14T18:09:12.068Z,4.70
2019-04-14T18:11:52.137Z,4.30
2019-04-14T18:14:44.379Z,4.33
2019-04-14T18:17:28.300Z,5.10
2019-04-14T18:20:27.937Z,5.63
2019-04-14T18:22:57.611Z,3.60
2019-04-14T18:25:26.966Z,6.60
2019-04-14T18:28:26.774Z,4.50
2019-04-14T18:31:44.662Z,43.23
2019-04-14T18:35:29.004Z,18.95
2019-04-14T18:38:14.051Z,7.80
2019-04-14T18:40:57.157Z,13.70
2019-04-14T18:43:57.328Z,5.27
2019-04-14T18:47:22.587Z,7.20
2019-04-14T18:50:18.043Z,8.20
2019-04-14T18:53:07.320Z,8.80
2019-04-14T18:55:54.495Z,10.80
2019-04-14T18:58:33.713Z,10.13
2019-04-14T19:01:10.346Z,10.10
2019-04-14T19:03:40.317Z,10.10
2019-04-14T19:06:20.618Z,8.17
2019-04-14T19:08:52.283Z,13.37
2019-04-14T19:12:04.176Z,8.90
2019-04-14T19:15:07.087Z,9.00
2019-04-14T19:17:55.198Z,10.70
2019-04-14T19:20:27.118Z,10.80
2019-04-14T19:22:58.154Z,10.57
2019-04-14T19:25:28.552Z,9.00
2019-04-14T19:28:29.705Z,11.20
2019-04-14T19:30:59.595Z,13.48
2019-04-14T19:33:29.320Z,9.87
2019-04-14T19:36:37.548Z,12.20
2019-04-14T19:39:16.700Z,14.50
2019-04-14T19:42:03.622Z,10.50
2019-04-14T19:44:42.150Z,10.80
2019-04-14T19:47:11.166Z,13.27
2019-04-14T19:49:39.958Z,10.72
2019-04-14T19:52:09.046Z,11.83
2019-04-14T19:54:38.402Z,13.60
2019-04-14T19:57:12.826Z,12.47
2019-04-14T19:59:43.892Z,12.55
2019-04-14T20:02:13.344Z,12.57
2019-04-14T20:04:43.163Z,14.83
2019-04-14T20:07:13.318Z,12.93
2019-04-14T20:09:45.134Z,14.07
2019-04-14T20:12:16.020Z,13.30
2019-04-14T20:14:46.228Z,13.70
2019-04-14T20:17:34.220Z,17.67
2019-04-14T20:20:25.798Z,15.73
2019-04-14T20:23:20.105Z,19.27
2019-04-14T20:26:07.773Z,18.63
2019-04-14T20:28:47.218Z,16.65
2019-04-14T20:31:40.567Z,16.87
2019-04-14T20:34:09.996Z,16.13
2019-04-14T20:36:38.984Z,16.80
2019-04-14T20:39:11.923Z,17.53
2019-04-14T20:41:43.154Z,20.17
2019-04-14T20:44:13.374Z,20.20
2019-04-14T20:46:48.218Z,20.07
2019-04-14T20:49:31.053Z,22.03
2019-04-14T20:52:04.169Z,18.70
2019-04-14T20:54:33.322Z,21.00
2019-04-14T20:57:03.152Z,23.40
2019-04-14T20:59:32.162Z,22.93
2019-04-14T21:02:19.123Z,23.70
2019-04-14T21:05:09.919Z,26.43
2019-04-14T21:07:58.385Z,24.57
2019-04-14T21:10:40.022Z,20.70
2019-04-14T21:13:24.452Z,25.60
2019-04-14T21:16:12.096Z,24.10
2019-04-14T21:18:40.495Z,27.40
2019-04-14T21:21:28.854Z,27.97
2019-04-14T21:24:15.971Z,27.57
2019-04-14T21:26:59.797Z,25.08
2019-04-14T21:29:50.769Z,26.20
2019-04-14T21:32:30.129Z,27.50
2019-04-14T21:35:33.389Z,27.10
2019-04-14T21:38:21.774Z,27.80
2019-04-14T21:40:54.120Z,31.37
2019-04-14T21:43:23.501Z,28.43
2019-04-14T21:45:52.310Z,27.53
2019-04-14T21:48:21.325Z,30.80
2019-04-14T21:50:50.123Z,28.70
2019-04-14T21:53:19.390Z,29.43
2019-04-14T21:55:48.226Z,30.10
2019-04-14T21:58:34.465Z,28.57
2019-04-14T22:01:50.629Z,31.07
2019-04-14T22:04:50.959Z,29.03
2019-04-14T22:07:32.594Z,28.03
2019-04-14T22:10:09.227Z,28.70
2019-04-14T22:12:38.258Z,31.23
2019-04-14T22:15:07.270Z,29.27
2019-04-14T22:17:36.300Z,31.68
2019-04-14T22:20:05.195Z,26.60
2019-04-14T22:22:34.187Z,29.00
2019-04-14T22:25:02.961Z,32.60
2019-04-14T22:27:31.975Z,29.83
2019-04-14T22:30:00.722Z,32.03
2019-04-14T22:32:29.755Z,28.00
2019-04-14T22:34:58.850Z,29.42
2019-04-14T22:37:27.954Z,28.97
2019-04-14T22:39:56.731Z,28.43
2019-04-14T22:42:25.711Z,32.43
2019-04-14T22:44:54.486Z,31.37
2019-04-14T22:47:23.253Z,32.70
2019-04-14T22:49:52.633Z,29.20
2019-04-14T22:52:21.885Z,30.07
2019-04-14T22:54:54.469Z,28.23
2019-04-14T22:57:23.367Z,31.02
2019-04-14T22:59:52.422Z,32.87
2019-04-14T23:02:43.457Z,32.45
2019-04-14T23:05:22.099Z,27.70
2019-04-14T23:08:13.405Z,32.47
2019-04-14T23:10:53.587Z,34.10
2019-04-14T23:13:35.329Z,28.60
2019-04-14T23:16:14.470Z,30.50
2019-04-14T23:18:52.399Z,32.83
2019-04-14T23:21:30.846Z,31.47
2019-04-14T23:24:25.110Z,33.23
2019-04-14T23:26:54.351Z,32.28
2019-04-14T23:29:23.616Z,30.90
2019-04-14T23:31:52.396Z,30.47
2019-04-14T23:34:21.170Z,33.00
2019-04-14T23:36:51.162Z,34.07
2019-04-14T23:39:20.197Z,37.10
2019-04-14T23:41:48.949Z,31.47
2019-04-14T23:44:18.029Z,35.88
2019-04-14T23:46:46.811Z,36.13
2019-04-14T23:49:15.831Z,39.70
2019-04-14T23:51:44.943Z,32.90
2019-04-14T23:54:13.843Z,37.23
2019-04-14T23:56:42.984Z,37.10
2019-04-14T23:59:12.383Z,32.20
